Time;durP1;ratioP1;P1;durP2;ratioP2;P2;SDS_P1;SDS_P2;PMS_P1;PMS_P2;Temp;Humidity;BMP_temperature;BMP_pressure;BME280_temperature;BME280_humidity;BME280_pressure;Samples;Min_cycle;Max_cycle;Signal;HPM_P1;HPM_P2
2022/11/06 00:04:31;;;;;;;27.85;21.00;;;;;;;8.99;90.70;100763.99;3499816;80;21436;-74
2022/11/06 00:09:22;;;;;;;32.17;22.90;;;;;;;9.00;90.66;100761.88;3499380;80;20952;-75
2022/11/06 00:14:27;;;;;;;25.32;19.02;;;;;;;8.99;90.67;100762.70;3497896;79;20900;-75
2022/11/06 00:19:30;;;;;;;26.17;19.48;;;;;;;8.98;90.63;100768.74;3361151;82;21001;-75
2022/11/06 00:24:21;;;;;;;22.37;18.75;;;;;;;8.96;90.59;100773.02;3383805;83;22233;-76
2022/11/06 00:29:14;;;;;;;27.05;18.48;;;;;;;8.95;90.65;100780.33;3303001;83;20986;-75
2022/11/06 00:34:06;;;;;;;26.35;19.50;;;;;;;8.95;90.62;100788.11;3272060;83;21044;-75
2022/11/06 00:38:58;;;;;;;30.15;19.30;;;;;;;8.93;90.60;100792.38;3336192;82;21466;-75
2022/11/06 00:43:57;;;;;;;25.50;17.98;;;;;;;8.92;90.64;100786.73;3334692;83;20982;-75
2022/11/06 00:48:48;;;;;;;24.43;17.15;;;;;;;8.90;90.60;100789.70;3297149;83;20998;-75
2022/11/06 00:53:41;;;;;;;24.45;17.30;;;;;;;8.86;90.48;100789.18;3225159;85;21114;-75
2022/11/06 00:58:32;;;;;;;27.50;18.98;;;;;;;8.81;90.45;100790.78;3201444;86;21012;-74
2022/11/06 01:03:24;;;;;;;24.50;18.87;;;;;;;8.77;90.46;100794.58;3249022;86;22256;-75
2022/11/06 01:08:15;;;;;;;25.65;19.35;;;;;;;8.74;90.37;100797.52;3252560;86;20959;-74
2022/11/06 01:13:07;;;;;;;27.45;19.67;;;;;;;8.72;90.40;100810.42;3323218;83;22624;-75
2022/11/06 01:17:58;;;;;;;28.45;19.32;;;;;;;8.67;90.36;100808.12;3321614;83;21555;-75
2022/11/06 01:22:49;;;;;;;26.20;20.17;;;;;;;8.66;90.53;100816.77;3305997;83;20977;-75
2022/11/06 01:27:40;;;;;;;41.85;21.07;;;;;;;8.65;90.41;100827.95;3323513;83;21009;-74
2022/11/06 01:32:33;;;;;;;29.10;19.50;;;;;;;8.64;90.51;100829.20;3252242;85;20942;-76
2022/11/06 01:37:28;;;;;;;28.27;19.95;;;;;;;8.63;90.41;100835.25;3292276;84;21519;-75
2022/11/06 01:42:20;;;;;;;29.60;20.60;;;;;;;8.61;90.49;100827.42;3374361;83;21733;-77
2022/11/06 01:47:28;;;;;;;35.15;21.48;;;;;;;8.60;90.39;100834.73;3333089;83;20994;-77
2022/11/06 01:52:22;;;;;;;28.32;18.90;;;;;;;8.58;90.37;100833.81;3333309;83;20978;-76
2022/11/06 01:57:14;;;;;;;31.48;21.50;;;;;;;8.52;90.18;100832.36;3351341;83;21049;-77
2022/11/06 02:02:05;;;;;;;28.27;20.92;;;;;;;8.48;90.28;100838.31;3302008;84;20994;-77
2022/11/06 02:06:59;;;;;;;32.48;20.80;;;;;;;8.45;90.26;100838.22;3331193;84;21064;-77
2022/11/06 02:11:56;;;;;;;33.08;21.05;;;;;;;8.41;90.21;100835.92;3240787;85;21056;-78
2022/11/06 02:16:55;;;;;;;27.65;20.17;;;;;;;8.36;90.07;100839.67;3237958;86;24057;-78
2022/11/06 02:22:04;;;;;;;30.57;18.85;;;;;;;8.30;90.03;100840.81;3195295;88;21535;-77
2022/11/06 02:27:10;;;;;;;30.85;15.83;;;;;;;8.23;89.83;100836.69;3339276;84;21027;-77
2022/11/06 02:32:09;;;;;;;24.72;19.05;;;;;;;8.14;89.77;100835.61;3365014;84;21589;-77
2022/11/06 02:37:06;;;;;;;24.87;19.17;;;;;;;8.08;89.94;100844.91;3308702;84;21093;-77
2022/11/06 02:42:00;;;;;;;27.55;18.48;;;;;;;8.00;89.82;100848.14;3298782;84;21018;-76
2022/11/06 02:47:05;;;;;;;27.30;19.35;;;;;;;7.93;89.79;100851.38;3321389;84;20997;-77
2022/11/06 02:52:01;;;;;;;25.32;18.15;;;;;;;7.83;89.74;100849.34;3349855;84;21508;-76
2022/11/06 02:56:57;;;;;;;23.40;17.50;;;;;;;7.80;90.02;100863.09;3323600;84;21654;-77
2022/11/06 03:01:59;;;;;;;21.15;17.20;;;;;;;7.77;89.78;100877.64;3278146;84;20961;-77
2022/11/06 03:06:59;;;;;;;22.20;15.63;;;;;;;7.73;89.99;100884.44;3335015;84;20986;-76
2022/11/06 03:12:05;;;;;;;23.70;16.05;;;;;;;7.73;90.10;100887.45;3284950;84;21504;-77
2022/11/06 03:17:14;;;;;;;23.95;14.90;;;;;;;7.71;90.10;100887.79;3333100;83;21084;-77
2022/11/06 03:22:14;;;;;;;16.75;14.47;;;;;;;7.72;89.85;100894.73;3324925;85;21252;-76
2022/11/06 03:27:13;;;;;;;19.30;12.73;;;;;;;7.72;89.85;100894.73;3266452;86;21017;-76
2022/11/06 03:32:27;;;;;;;25.57;14.25;;;;;;;7.71;90.00;100898.14;3251516;86;21132;-76
2022/11/06 03:37:29;;;;;;;26.23;13.48;;;;;;;7.67;89.95;100900.17;3213398;87;21540;-77
2022/11/06 03:42:26;;;;;;;20.80;13.40;;;;;;;7.63;89.80;100903.95;3232263;86;21070;-76
2022/11/06 03:47:35;;;;;;;18.23;13.60;;;;;;;7.66;89.98;100911.37;3245794;87;21252;-76
2022/11/06 03:52:43;;;;;;;19.95;13.32;;;;;;;7.61;89.67;100912.09;3238619;86;21049;-76
2022/11/06 03:57:46;;;;;;;15.98;11.88;;;;;;;7.61;89.67;100912.09;3236100;86;20964;-77
2022/11/06 04:02:41;;;;;;;18.75;13.10;;;;;;;7.57;89.68;100907.66;3247115;86;21018;-77
2022/11/06 04:07:37;;;;;;;17.92;12.58;;;;;;;7.50;89.59;100914.75;3236671;86;21054;-77
2022/11/06 04:17:40;;;;;;;17.42;12.33;;;;;;;7.34;89.40;100913.80;3218726;87;20979;-77
2022/11/06 04:22:49;;;;;;;13.68;10.70;;;;;;;7.21;89.26;100921.14;3187980;87;20990;-76
2022/11/06 04:27:46;;;;;;;19.60;13.08;;;;;;;7.13;89.09;100929.03;3212646;87;21600;-76
2022/11/06 04:33:08;;;;;;;15.50;11.40;;;;;;;7.02;89.28;100925.20;3236207;87;21038;-76
2022/11/06 04:38:40;;;;;;;15.05;12.10;;;;;;;6.91;89.07;100918.80;3287485;84;22686;-76
2022/11/06 04:43:48;;;;;;;14.00;10.15;;;;;;;6.75;88.88;100919.53;3331801;84;21031;-74
2022/11/06 04:48:41;;;;;;;9.70;7.65;;;;;;;6.41;88.41;100914.43;3330938;84;21470;-75
2022/11/06 04:53:33;;;;;;;14.95;8.75;;;;;;;6.41;88.41;100914.43;3344480;84;20986;-75
2022/11/06 04:58:25;;;;;;;12.43;8.48;;;;;;;6.27;87.50;100915.62;3315025;84;20989;-75
2022/11/06 05:03:17;;;;;;;10.53;8.40;;;;;;;6.13;87.73;100912.51;3340150;84;21036;-75
2022/11/06 05:08:15;;;;;;;14.13;8.88;;;;;;;6.05;87.93;100916.52;3284432;84;20969;-75
2022/11/06 05:13:06;;;;;;;11.68;8.13;;;;;;;5.95;88.09;100912.65;3275357;84;20970;-75
2022/11/06 05:17:57;;;;;;;11.03;8.40;;;;;;;5.83;87.52;100917.33;3286475;86;21086;-75
2022/11/06 05:22:59;;;;;;;11.50;8.48;;;;;;;5.71;87.29;100918.61;3256435;85;21064;-75
2022/11/06 05:27:51;;;;;;;9.95;7.15;;;;;;;5.64;87.66;100929.51;3166098;87;21924;-75
2022/11/06 05:32:42;;;;;;;9.50;7.35;;;;;;;5.51;86.71;100941.45;3244448;86;21170;-75
2022/11/06 05:37:33;;;;;;;9.38;7.47;;;;;;;5.41;86.79;100941.87;3242536;85;21534;-75
2022/11/06 05:42:24;;;;;;;15.75;8.83;;;;;;;5.30;86.72;100941.44;3236446;86;21595;-75
2022/11/06 05:47:16;;;;;;;10.63;8.30;;;;;;;5.23;86.85;100949.31;3247220;84;20961;-75
2022/11/06 05:52:07;;;;;;;12.23;9.45;;;;;;;5.16;86.73;100958.88;3338929;83;22086;-74
2022/11/06 05:56:58;;;;;;;11.53;8.18;;;;;;;5.10;86.66;100962.50;3253140;86;20989;-75
2022/11/06 06:01:50;;;;;;;15.10;8.30;;;;;;;5.05;86.38;100964.00;3218843;85;21036;-74
2022/11/06 06:06:41;;;;;;;11.75;8.83;;;;;;;5.02;86.56;100978.03;3333745;84;20986;-75
2022/11/06 06:11:33;;;;;;;19.82;12.70;;;;;;;5.03;86.69;100979.81;3353015;84;21587;-75
2022/11/06 06:16:24;;;;;;;53.50;13.78;;;;;;;5.13;87.45;100979.36;3310420;83;22130;-75
2022/11/06 06:21:16;;;;;;;27.87;11.43;;;;;;;5.27;87.93;100989.86;3214405;86;21028;-76
2022/11/06 06:26:07;;;;;;;53.42;13.80;;;;;;;5.50;87.89;101001.57;3212929;87;20990;-75
2022/11/06 06:31:04;;;;;;;55.63;14.83;;;;;;;5.50;87.89;101001.57;3254428;87;21037;-75
2022/11/06 06:35:56;;;;;;;37.50;16.10;;;;;;;5.63;87.92;101007.70;3252183;87;21388;-75
2022/11/06 06:40:48;;;;;;;44.08;15.65;;;;;;;5.81;88.13;101020.52;3208093;86;21604;-76
2022/11/06 06:45:39;;;;;;;25.68;13.80;;;;;;;5.94;87.75;101016.72;3313700;84;21022;-75
2022/11/06 06:50:31;;;;;;;30.62;12.75;;;;;;;6.22;87.81;101021.30;3309699;83;21481;-73
2022/11/06 06:55:23;;;;;;;43.92;11.03;;;;;;;6.22;87.81;101021.30;3296352;84;21634;-75
2022/11/06 07:00:16;;;;;;;22.30;11.15;;;;;;;6.34;87.94;101020.91;3231297;85;20999;-75
2022/11/06 07:05:08;;;;;;;22.55;11.65;;;;;;;6.44;87.97;101032.08;3268809;86;21310;-74
2022/11/06 07:09:59;;;;;;;36.15;13.60;;;;;;;6.62;87.95;101027.16;3221665;86;21058;-75
2022/11/06 07:14:50;;;;;;;29.15;11.80;;;;;;;6.72;87.63;101030.53;3183723;87;20991;-76
2022/11/06 07:19:42;;;;;;;39.70;10.30;;;;;;;6.79;87.75;101039.41;3192070;87;21015;-75
2022/11/06 07:24:33;;;;;;;24.35;12.25;;;;;;;6.84;87.25;101037.45;3198369;87;21054;-76
2022/11/06 07:29:24;;;;;;;21.75;12.40;;;;;;;6.93;87.47;101033.46;3283439;84;21545;-76
2022/11/06 07:34:37;;;;;;;20.52;12.20;;;;;;;7.13;87.61;101028.59;3275306;85;21034;-76
2022/11/06 07:39:27;;;;;;;28.67;13.35;;;;;;;7.13;87.61;101028.59;3273346;85;21552;-75
2022/11/06 07:44:28;;;;;;;22.70;12.78;;;;;;;7.22;87.40;101034.08;3242252;85;21020;-76
2022/11/06 07:49:23;;;;;;;50.23;14.45;;;;;;;7.27;87.53;101037.27;3356418;83;21292;-77
2022/11/06 07:54:15;;;;;;;33.58;14.13;;;;;;;7.42;87.28;101027.44;3282733;86;22856;-77
2022/11/06 07:59:06;;;;;;;27.70;12.35;;;;;;;7.58;86.56;101025.88;3303334;83;22009;-78
2022/11/06 08:04:21;;;;;;;20.17;12.63;;;;;;;7.83;86.56;101042.20;3329699;83;20957;-76
2022/11/06 08:09:26;;;;;;;21.73;12.10;;;;;;;7.85;86.75;101034.06;3189551;87;21205;-75
2022/11/06 08:14:28;;;;;;;21.23;13.18;;;;;;;7.90;86.55;101037.69;3141340;88;21101;-76
2022/11/06 08:19:27;;;;;;;18.35;13.13;;;;;;;8.02;86.01;101049.75;3151063;88;21917;-77
2022/11/06 08:24:27;;;;;;;20.43;15.08;;;;;;;8.15;86.44;101048.85;3107241;87;20997;-75
2022/11/06 08:29:35;;;;;;;17.45;12.55;;;;;;;8.32;86.33;101054.16;3094854;89;21088;-78
2022/11/06 08:34:43;;;;;;;19.45;13.93;;;;;;;8.34;85.65;101061.56;3135838;87;21055;-75
2022/11/06 08:39:43;;;;;;;17.70;10.90;;;;;;;8.24;85.65;101065.98;3136597;88;21066;-75
2022/11/06 08:45:01;;;;;;;25.95;14.60;;;;;;;8.24;85.79;101059.50;3154476;87;21085;-75
2022/11/06 08:49:40;;;;;;;32.25;12.15;;;;;;;8.16;85.88;101058.40;3142188;88;21620;-76
2022/11/06 08:54:47;;;;;;;32.05;12.37;;;;;;;8.18;85.62;101056.73;3161897;88;21609;-75
2022/11/06 08:59:53;;;;;;;;;;;;;;;;;;;;;
2022/11/06 09:04:47;;;;;;;19.07;11.75;;;;;;;8.16;85.60;101058.40;3065829;89;21138;-75
2022/11/06 09:09:54;;;;;;;24.32;12.85;;;;;;;8.21;85.54;101068.50;3185439;86;21585;-75
2022/11/06 09:14:48;;;;;;;17.48;11.97;;;;;;;8.37;85.07;101064.66;3104197;89;21641;-74
2022/11/06 09:19:54;;;;;;;23.38;11.63;;;;;;;8.43;85.44;101064.90;3104295;90;21131;-76
2022/11/06 09:24:44;;;;;;;19.00;14.38;;;;;;;8.43;85.05;101057.55;2997070;91;21055;-75
2022/11/06 09:29:50;;;;;;;19.07;12.35;;;;;;;8.49;85.27;101062.91;3055188;90;21426;-76
2022/11/06 09:34:54;;;;;;;15.72;11.93;;;;;;;8.63;85.59;101059.02;3058801;90;21215;-76
2022/11/06 09:40:08;;;;;;;15.85;10.55;;;;;;;8.83;84.85;101057.02;3106857;90;21563;-76
2022/11/06 09:45:06;;;;;;;14.38;10.82;;;;;;;9.00;84.29;101057.53;3042694;91;21182;-76
2022/11/06 09:50:20;;;;;;;18.55;13.03;;;;;;;9.12;83.79;101059.57;3034452;92;21522;-76
2022/11/06 09:55:27;;;;;;;14.98;12.18;;;;;;;9.11;83.45;101068.21;3048931;92;21028;-77
2022/11/06 10:00:23;;;;;;;16.80;12.03;;;;;;;9.10;83.56;101064.75;3034146;92;21874;-77
2022/11/06 10:05:31;;;;;;;14.63;11.85;;;;;;;9.03;83.43;101061.52;3054736;90;21158;-76
2022/11/06 10:11:16;;;;;;;17.73;11.15;;;;;;;8.99;83.60;101057.48;3167615;85;21072;-76
2022/11/06 10:17:06;;;;;;;16.42;11.80;;;;;;;8.97;83.28;101060.89;3202074;87;21032;-75
2022/11/06 10:33:26;;;;;;;16.05;12.75;;;;;;;8.93;84.03;101077.21;3311834;83;20992;-76
2022/11/06 10:38:22;;;;;;;17.12;13.18;;;;;;;8.95;84.50;101068.19;3348898;83;21007;-76
2022/11/06 10:43:52;;;;;;;14.33;11.57;;;;;;;8.99;84.30;101068.72;3340803;83;20964;-76
2022/11/06 10:48:57;;;;;;;15.58;10.85;;;;;;;9.04;83.95;101064.55;3350857;83;21064;-75
2022/11/06 10:54:17;;;;;;;13.05;11.33;;;;;;;9.05;84.05;101063.73;3358634;83;20976;-76
2022/11/06 10:59:08;;;;;;;16.80;11.12;;;;;;;9.05;84.33;101062.44;3322695;84;21521;-77
2022/11/06 11:04:05;;;;;;;14.95;10.63;;;;;;;9.08;84.76;101053.42;3297152;83;21160;-76
2022/11/06 11:09:00;;;;;;;15.30;10.90;;;;;;;9.04;84.25;101048.98;3330068;83;23087;-75
2022/11/06 11:14:07;;;;;;;18.32;11.85;;;;;;;9.09;84.37;101050.00;3325295;84;21682;-76
2022/11/06 11:19:22;;;;;;;14.78;11.43;;;;;;;9.22;84.18;101045.16;3362066;83;21975;-76
2022/11/06 11:24:37;;;;;;;13.32;9.45;;;;;;;9.28;83.48;101033.64;3322954;84;21067;-75
2022/11/06 11:29:50;;;;;;;14.13;10.72;;;;;;;9.28;83.00;101024.16;3319614;83;20898;-75
2022/11/06 11:34:53;;;;;;;11.90;10.13;;;;;;;9.37;82.81;101023.50;3350212;83;21401;-76
2022/11/06 11:39:44;;;;;;;11.93;10.32;;;;;;;9.54;82.87;101018.34;3353586;84;20970;-76
2022/11/06 11:44:39;;;;;;;13.88;10.60;;;;;;;9.68;82.19;101015.25;3335983;85;21075;-76
2022/11/06 11:49:33;;;;;;;12.75;9.65;;;;;;;9.69;81.71;101017.88;3331947;84;21146;-76
2022/11/06 11:54:39;;;;;;;16.40;11.03;;;;;;;9.98;81.65;101012.53;3304288;84;20997;-77
2022/11/06 11:59:54;;;;;;;13.60;10.63;;;;;;;10.19;81.57;101006.94;3339634;84;21066;-76
2022/11/06 12:05:16;;;;;;;13.25;10.48;;;;;;;10.77;81.27;101002.19;3356653;83;21006;-76
2022/11/06 12:10:06;;;;;;;13.90;10.98;;;;;;;10.97;80.27;101006.48;3354380;83;21255;-76
2022/11/06 12:15:44;;;;;;;13.43;11.93;;;;;;;10.68;80.11;100998.97;3373901;82;21018;-76
2022/11/06 12:21:01;;;;;;;15.58;10.60;;;;;;;10.13;80.23;100995.55;3345543;83;21000;-75
2022/11/06 12:26:07;;;;;;;16.07;11.63;;;;;;;9.72;81.29;101001.48;3314847;83;21550;-75
2022/11/06 12:31:07;;;;;;;14.40;10.58;;;;;;;9.31;81.56;100998.70;3333754;83;21030;-75
2022/11/06 12:36:03;;;;;;;18.77;13.35;;;;;;;9.12;82.23;100993.42;3369164;83;21890;-75
2022/11/06 12:41:17;;;;;;;17.48;12.75;;;;;;;9.44;82.79;100994.28;3329895;84;21001;-75
2022/11/06 12:46:34;;;;;;;13.62;10.90;;;;;;;9.77;82.65;100986.91;3341904;83;20982;-77
2022/11/06 12:51:52;;;;;;;12.00;10.03;;;;;;;10.00;81.72;100986.59;3362338;84;21543;-76
2022/11/06 12:57:26;;;;;;;11.95;10.08;;;;;;;10.07;81.38;100978.97;3333058;84;21006;-75
2022/11/06 13:08:34;;;;;;;;;;;;;;;;;;;;;
2022/11/06 13:13:58;;;;;;;16.03;10.57;;;;;;;9.74;82.05;100972.54;3250635;84;21017;-75
2022/11/06 13:19:02;;;;;;;13.85;11.85;;;;;;;9.60;82.13;100973.92;3370993;83;21002;-75
2022/11/06 13:24:07;;;;;;;16.60;9.63;;;;;;;9.34;82.18;100976.73;3336987;84;21055;-74
2022/11/06 13:29:05;;;;;;;15.58;10.80;;;;;;;9.13;82.54;100974.02;3354004;84;21247;-74
2022/11/06 13:33:59;;;;;;;13.00;9.50;;;;;;;8.95;82.72;100970.93;3319744;83;20991;-74
2022/11/06 13:39:01;;;;;;;14.07;9.35;;;;;;;8.75;83.12;100970.38;3331663;83;21084;-74
2022/11/06 13:44:06;;;;;;;12.63;9.93;;;;;;;8.54;83.38;100966.31;3349433;83;22221;-74
2022/11/06 13:49:41;;;;;;;11.95;9.95;;;;;;;8.37;83.66;100963.21;3276708;84;21093;-75
2022/11/06 13:54:59;;;;;;;12.13;9.08;;;;;;;8.21;84.01;100958.41;3361946;83;22221;-75
2022/11/06 14:00:04;;;;;;;12.37;8.85;;;;;;;8.01;84.03;100961.26;3318383;84;20984;-74
2022/11/06 14:05:41;;;;;;;10.08;8.38;;;;;;;7.82;84.35;100956.33;3323936;83;21017;-76
2022/11/06 14:10:38;;;;;;;16.45;8.35;;;;;;;7.67;84.92;100955.40;3360047;83;21061;-75
2022/11/06 14:15:40;;;;;;;12.40;8.75;;;;;;;7.48;84.65;100955.23;3320888;83;21011;-76
2022/11/06 14:21:09;;;;;;;13.32;9.35;;;;;;;7.19;85.25;100945.16;3333153;83;21626;-75
2022/11/06 14:26:10;;;;;;;11.35;8.08;;;;;;;7.19;85.25;100945.16;3359715;83;20970;-76
2022/11/06 14:31:02;;;;;;;8.78;7.70;;;;;;;7.08;85.41;100940.05;3343905;83;21092;-75
2022/11/06 14:35:54;;;;;;;7.65;6.00;;;;;;;6.93;85.22;100933.94;3319678;83;20994;-75
2022/11/06 14:40:52;;;;;;;8.93;6.22;;;;;;;6.74;85.25;100922.92;3313809;84;21349;-74
2022/11/06 14:46:07;;;;;;;7.92;7.10;;;;;;;6.65;85.11;100943.27;3334339;83;21209;-75
2022/11/06 14:51:06;;;;;;;9.93;7.78;;;;;;;6.51;84.91;100950.92;3366358;83;20998;-75
2022/11/06 14:56:05;;;;;;;13.65;8.75;;;;;;;6.32;84.31;100943.79;3344229;83;21105;-74
2022/11/06 15:01:01;;;;;;;13.32;9.15;;;;;;;6.19;84.99;100953.16;3324586;83;21470;-75
2022/11/06 15:06:00;;;;;;;90.70;48.52;;;;;;;6.07;84.67;100953.17;3307281;83;21516;-75
2022/11/06 15:10:53;;;;;;;87.88;43.65;;;;;;;5.93;84.82;100947.84;3292436;84;22580;-76
2022/11/06 15:15:48;;;;;;;50.30;26.50;;;;;;;5.85;84.92;100950.55;3338867;84;21522;-75
2022/11/06 15:20:52;;;;;;;89.67;50.75;;;;;;;5.71;85.07;100950.86;3329814;83;21563;-76
2022/11/06 15:26:23;;;;;;;152.65;83.37;;;;;;;5.64;84.88;100948.86;3323176;83;20913;-74
2022/11/06 15:31:17;;;;;;;149.35;81.75;;;;;;;5.48;84.73;100950.34;3349142;83;21057;-76
2022/11/06 15:36:27;;;;;;;140.57;76.28;;;;;;;5.36;84.90;100948.13;3315599;83;21969;-75
2022/11/06 15:41:23;;;;;;;167.90;92.27;;;;;;;5.22;84.52;100947.53;3297094;85;21100;-75
2022/11/06 15:46:22;;;;;;;145.00;78.78;;;;;;;5.10;84.48;100939.31;3291864;85;21000;-74
2022/11/06 15:51:28;;;;;;;128.57;64.87;;;;;;;4.98;84.63;100938.78;3210856;83;21079;-76
2022/11/06 15:56:39;;;;;;;118.25;64.40;;;;;;;4.88;84.72;100947.78;3275392;85;21003;-75
2022/11/06 16:06:54;;;;;;;88.60;50.33;;;;;;;4.64;84.42;100937.30;3097823;90;21066;-74
2022/11/06 16:11:54;;;;;;;81.97;48.40;;;;;;;4.56;84.56;100945.56;3039260;90;21137;-74
2022/11/06 16:16:57;;;;;;;86.20;49.38;;;;;;;4.47;84.52;100946.44;3102940;89;21126;-74
2022/11/06 16:22:13;;;;;;;67.37;42.55;;;;;;;4.37;84.42;100937.41;3103971;89;21644;-75
2022/11/06 16:27:27;;;;;;;;;;;;;;;;;;;;;
2022/11/06 16:32:32;;;;;;;;;;;;;;;;;;;;;
2022/11/06 16:37:28;;;;;;;51.88;28.98;;;;;;;4.15;84.57;100950.98;3173892;87;21164;-75
2022/11/06 16:42:32;;;;;;;53.23;30.55;;;;;;;4.05;84.20;100955.22;3179881;87;21014;-75
2022/11/06 16:47:23;;;;;;;47.15;29.25;;;;;;;3.99;84.60;100949.80;3182576;87;21771;-75
2022/11/06 16:52:37;;;;;;;31.00;20.08;;;;;;;3.95;84.49;100945.30;3145990;87;21505;-75
2022/11/06 16:57:43;;;;;;;29.50;16.77;;;;;;;3.86;84.36;100947.44;3161943;87;21145;-75
2022/11/06 17:02:36;;;;;;;36.13;22.82;;;;;;;3.74;84.25;100946.05;3268380;83;21722;-74
2022/11/06 17:07:31;;;;;;;49.23;31.57;;;;;;;3.67;84.17;100946.56;3330533;83;21678;-75
2022/11/06 17:12:23;;;;;;;40.90;26.87;;;;;;;3.59;84.16;100950.44;3310596;84;21013;-74
2022/11/06 17:17:25;;;;;;;27.82;19.90;;;;;;;3.53;84.11;100948.86;3324580;83;21351;-75
2022/11/06 17:22:17;;;;;;;23.20;16.37;;;;;;;3.46;83.99;100955.80;3251687;83;43886;-75
2022/11/06 17:27:08;;;;;;;20.15;15.58;;;;;;;3.39;83.97;100950.33;3330150;83;21471;-75
2022/11/06 17:32:00;;;;;;;19.07;14.53;;;;;;;3.30;83.88;100949.88;3298204;83;20989;-74
2022/11/06 17:36:51;;;;;;;17.92;15.65;;;;;;;3.22;83.89;100953.77;3330233;84;21010;-75
2022/11/06 17:41:42;;;;;;;25.25;16.97;;;;;;;3.14;83.88;100947.35;3304758;84;21217;-75
2022/11/06 17:47:03;;;;;;;19.55;15.05;;;;;;;3.05;84.03;100948.64;3347361;83;21045;-75
2022/11/06 17:51:58;;;;;;;24.60;16.60;;;;;;;3.04;84.13;100948.17;3308236;84;21440;-74
2022/11/06 17:56:54;;;;;;;21.27;18.32;;;;;;;2.99;84.13;100943.20;3285370;83;21186;-75
2022/11/06 18:01:56;;;;;;;35.10;25.10;;;;;;;2.95;83.81;100950.28;3337079;84;20939;-75
2022/11/06 18:07:03;;;;;;;50.48;30.88;;;;;;;2.88;83.91;100948.58;3342902;83;22082;-75
2022/11/06 18:12:05;;;;;;;41.40;29.50;;;;;;;2.84;84.06;100947.16;3330403;83;21120;-75
2022/11/06 18:16:56;;;;;;;44.55;31.02;;;;;;;2.84;84.20;100947.53;3351601;83;21570;-75
2022/11/06 18:21:48;;;;;;;47.62;30.17;;;;;;;2.77;83.93;100935.18;3361313;83;21028;-74
2022/11/06 18:26:39;;;;;;;45.50;30.57;;;;;;;2.69;83.79;100929.66;3334629;84;21002;-74
2022/11/06 18:31:31;;;;;;;47.30;32.08;;;;;;;2.61;83.15;100937.34;3310133;83;21369;-74
2022/11/06 18:36:22;;;;;;;35.43;25.65;;;;;;;2.52;83.25;100936.45;3281743;85;21725;-75
2022/11/06 18:41:20;;;;;;;30.15;20.90;;;;;;;2.47;83.39;100934.08;3249042;85;20988;-74
2022/11/06 18:46:15;;;;;;;31.70;24.15;;;;;;;2.40;83.33;100930.70;3274785;85;21215;-75
2022/11/06 18:51:15;;;;;;;30.85;23.70;;;;;;;2.32;83.42;100925.55;3249741;85;22769;-74
2022/11/06 18:56:13;;;;;;;27.22;20.85;;;;;;;2.25;83.49;100930.36;3214400;86;21146;-75
2022/11/06 19:01:11;;;;;;;;;;;;;;;2.22;83.46;100936.60;3195666;87;21083;-74
2022/11/06 19:06:07;;;;;;;34.48;22.80;;;;;;;2.18;83.23;100937.63;3204187;87;20183;-74
2022/11/06 19:11:07;;;;;;;42.03;31.50;;;;;;;2.14;83.75;100926.72;3214436;86;21573;-75
2022/11/06 19:15:58;;;;;;;41.37;29.92;;;;;;;2.15;83.89;100932.34;3281933;85;21065;-75
2022/11/06 19:20:49;;;;;;;50.98;36.23;;;;;;;2.14;83.85;100922.88;3262763;85;21129;-76
2022/11/06 19:25:41;;;;;;;50.78;35.68;;;;;;;2.11;83.80;100923.61;3319132;83;21268;-77
2022/11/06 19:30:33;;;;;;;38.28;28.77;;;;;;;2.09;83.76;100926.08;3324076;83;22117;-75
2022/11/06 19:35:24;;;;;;;33.70;24.95;;;;;;;2.01;83.42;100923.48;3292984;84;21054;-74
2022/11/06 19:40:16;;;;;;;37.83;28.30;;;;;;;1.95;83.51;100920.98;3309238;84;21588;-74
2022/11/06 19:45:08;;;;;;;38.58;27.32;;;;;;;1.90;83.54;100915.20;3265609;83;22574;-75
2022/11/06 19:50:00;;;;;;;40.35;28.45;;;;;;;1.85;83.52;100926.89;3296432;83;21631;-75
2022/11/06 19:54:51;;;;;;;48.98;31.82;;;;;;;1.83;83.60;100919.92;3317969;83;20994;-74
2022/11/06 19:59:45;;;;;;;48.38;33.80;;;;;;;1.79;83.67;100916.30;3305657;84;21042;-74
2022/11/06 20:04:37;;;;;;;40.45;28.50;;;;;;;1.78;83.51;100902.11;3305178;84;20971;-74
2022/11/06 20:09:29;;;;;;;52.78;30.35;;;;;;;1.70;83.53;100891.04;3320455;84;22884;-73
2022/11/06 20:14:23;;;;;;;43.80;28.65;;;;;;;1.67;83.48;100897.27;3290546;84;21517;-74
2022/11/06 20:19:14;;;;;;;34.48;24.15;;;;;;;1.61;83.37;100894.75;3311409;83;20985;-75
2022/11/06 20:24:06;;;;;;;34.78;23.87;;;;;;;1.56;83.56;100894.89;3328723;83;20996;-74
2022/11/06 20:29:00;;;;;;;31.23;23.80;;;;;;;1.49;83.45;100893.28;3311268;83;20998;-75
2022/11/06 20:33:51;;;;;;;31.52;22.70;;;;;;;1.46;83.43;100894.78;3267013;83;23874;-74
2022/11/06 20:38:43;;;;;;;36.45;23.35;;;;;;;1.41;83.30;100893.23;3275096;83;21035;-74
2022/11/06 20:43:35;;;;;;;39.05;25.15;;;;;;;1.38;83.49;100899.48;3310988;84;21528;-75
2022/11/06 20:48:27;;;;;;;37.25;27.37;;;;;;;1.37;83.72;100892.98;3360617;83;21051;-75
2022/11/06 20:53:19;;;;;;;32.58;24.92;;;;;;;1.37;83.81;100890.02;3279314;84;21498;-74
2022/11/06 20:58:10;;;;;;;35.90;25.52;;;;;;;1.36;83.87;100893.39;3289870;83;21050;-75
2022/11/06 21:03:01;;;;;;;37.70;25.02;;;;;;;1.36;84.01;100890.84;3333271;84;20979;-74
2022/11/06 21:07:53;;;;;;;39.67;27.52;;;;;;;1.36;84.09;100895.95;3312855;83;21020;-75
2022/11/06 21:12:44;;;;;;;39.48;23.73;;;;;;;1.33;84.04;100886.81;3327772;83;21078;-74
2022/11/06 21:17:41;;;;;;;37.83;25.90;;;;;;;1.31;84.07;100889.69;3303688;84;21581;-74
2022/11/06 21:22:32;;;;;;;38.38;25.23;;;;;;;1.28;84.09;100881.41;3360681;83;21061;-74
2022/11/06 21:27:23;;;;;;;36.63;24.02;;;;;;;1.21;83.96;100883.14;3277100;83;21073;-75
2022/11/06 21:32:15;;;;;;;36.23;23.02;;;;;;;1.20;84.19;100881.39;3363002;83;21034;-74
2022/11/06 21:37:06;;;;;;;35.03;22.42;;;;;;;1.18;84.15;100879.52;3316080;83;20952;-75
2022/11/06 21:41:57;;;;;;;40.15;27.80;;;;;;;1.17;83.99;100876.08;3362512;83;21012;-75
2022/11/06 21:46:49;;;;;;;38.65;24.63;;;;;;;1.10;83.90;100865.88;3322568;83;21024;-74
2022/11/06 21:51:41;;;;;;;33.10;23.80;;;;;;;1.08;84.15;100855.95;3358829;83;21030;-75
2022/11/06 21:56:33;;;;;;;33.00;21.27;;;;;;;1.04;84.10;100846.33;3272218;84;20948;-74
2022/11/06 22:01:26;;;;;;;32.15;22.07;;;;;;;1.03;84.27;100835.59;3282582;83;22262;-74
2022/11/06 22:06:20;;;;;;;30.00;18.95;;;;;;;1.01;84.02;100832.06;3317260;84;20915;-74
2022/11/06 22:11:16;;;;;;;31.50;22.25;;;;;;;0.96;84.03;100842.44;3311606;83;22594;-75
2022/11/06 22:16:09;;;;;;;29.92;22.05;;;;;;;0.98;84.26;100839.97;3301265;83;21055;-76
2022/11/06 22:21:11;;;;;;;33.02;22.80;;;;;;;0.93;84.35;100830.73;3305334;83;21017;-76
2022/11/06 22:26:11;;;;;;;29.05;22.10;;;;;;;0.92;84.24;100838.81;3298046;84;21020;-75
2022/11/06 22:31:04;;;;;;;28.23;21.42;;;;;;;0.90;84.22;100829.30;3325657;84;21015;-76
2022/11/06 22:36:09;;;;;;;33.23;23.73;;;;;;;0.84;83.95;100828.92;3312773;84;23720;-76
2022/11/06 22:41:02;;;;;;;37.17;24.10;;;;;;;0.82;84.26;100833.08;3311999;84;21022;-74
2022/11/06 22:46:07;;;;;;;35.13;23.18;;;;;;;0.79;84.38;100832.89;3316876;83;21134;-73
2022/11/06 22:51:05;;;;;;;36.77;24.25;;;;;;;0.78;84.39;100832.02;3358408;84;20987;-74
2022/11/06 22:55:58;;;;;;;29.20;20.20;;;;;;;0.75;84.23;100825.06;3339006;83;20990;-74
2022/11/06 23:00:51;;;;;;;41.77;27.45;;;;;;;0.69;84.09;100819.56;3338300;84;22352;-74
2022/11/06 23:05:42;;;;;;;31.55;24.23;;;;;;;0.71;84.46;100829.89;3291375;83;21996;-75
2022/11/06 23:10:37;;;;;;;33.23;24.92;;;;;;;0.72;84.70;100826.15;3286782;84;21015;-75
2022/11/06 23:15:30;;;;;;;35.55;23.40;;;;;;;0.75;84.64;100830.17;3279169;84;21099;-74
2022/11/06 23:20:23;;;;;;;32.85;23.50;;;;;;;0.69;84.22;100826.37;3339435;84;21030;-75
2022/11/06 23:25:16;;;;;;;38.40;25.32;;;;;;;0.64;84.29;100827.77;3324877;84;22011;-74
2022/11/06 23:30:09;;;;;;;35.98;23.85;;;;;;;0.62;84.49;100826.39;3228777;85;21271;-75
2022/11/06 23:35:01;;;;;;;30.88;23.83;;;;;;;0.61;84.49;100822.09;3328670;83;21025;-74
2022/11/06 23:39:52;;;;;;;32.23;23.27;;;;;;;0.59;84.68;100819.84;3270178;84;21355;-75